Time;durP1;ratioP1;P1;durP2;ratioP2;P2;SDS_P1;SDS_P2;PMS_P1;PMS_P2;Temp;Humidity;BMP_temperature;BMP_pressure;BME280_temperature;BME280_humidity;BME280_pressure;Samples;Min_cycle;Max_cycle;Signal;HPM_P1;HPM_P2
2023/12/26 00:00:46;;;;;;;;;;;;;;;9.86;69.69;98918.31;4394635;32;33485;-87
2023/12/26 00:03:14;;;;;;;;;;;;;;;10.09;68.90;98922.91;4402237;32;34077;-88
2023/12/26 00:05:41;;;;;;;;;;;;;;;9.87;69.44;98922.66;4397973;32;35923;-89
2023/12/26 00:08:09;;;;;;;;;;;;;;;10.08;68.77;98913.41;4393740;32;34734;-91
2023/12/26 00:10:36;;;;;;;;;;;;;;;10.28;67.81;98921.41;4395623;32;33831;-91
2023/12/26 00:13:04;;;;;;;;;;;;;;;10.04;68.04;98930.62;4388768;32;32963;-89
2023/12/26 00:15:31;;;;;;;;;;;;;;;10.19;67.75;98922.12;4412781;32;35162;-88
2023/12/26 00:17:59;;;;;;;;;;;;;;;10.31;67.15;98914.53;4402922;32;34543;-89
2023/12/26 00:20:27;;;;;;;;;;;;;;;10.27;67.07;98914.47;4416771;32;32711;-90
2023/12/26 00:22:54;;;;;;;;;;;;;;;10.22;67.08;98920.44;4402168;32;33290;-91
2023/12/26 00:25:23;;;;;;;;;;;;;;;9.89;68.18;98922.69;4399625;32;35207;-93
2023/12/26 00:27:50;;;;;;;;;;;;;;;10.22;67.48;98922.16;4394867;32;34162;-89
2023/12/26 00:30:17;;;;;;;;;;;;;;;10.28;67.33;98926.56;4414026;32;33375;-90
2023/12/26 00:32:45;;;;;;;;;;;;;;;10.14;67.86;98935.03;4402719;32;34175;-88
2023/12/26 00:35:13;;;;;;;;;;;;;;;10.05;68.46;98926.31;4392843;32;34051;-92
2023/12/26 00:37:41;;;;;;;;;;;;;;;10.09;68.26;98925.47;4394069;32;33803;-91
2023/12/26 00:40:08;;;;;;;;;;;;;;;9.94;68.95;98931.34;4410627;32;32974;-90
2023/12/26 00:42:35;;;;;;;;;;;;;;;10.00;69.11;98923.66;4405099;32;33711;-89
2023/12/26 00:45:03;;;;;;;;;;;;;;;10.10;68.77;98922.91;4391703;32;34314;-92
2023/12/26 00:47:32;;;;;;;;;;;;;;;10.10;69.18;98916.84;4393176;32;33347;-89
2023/12/26 00:49:59;;;;;;;;;;;;;;;10.21;68.94;98925.59;4398993;32;32673;-90
2023/12/26 00:52:27;;;;;;;;;;;;;;;10.03;69.42;98930.59;4393561;32;34642;-90
2023/12/26 00:54:54;;;;;;;;;;;;;;;10.02;69.63;98934.91;4393214;32;33075;-90
2023/12/26 00:57:22;;;;;;;;;;;;;;;10.03;69.64;98926.25;4404154;32;33729;-92
2023/12/26 00:59:50;;;;;;;;;;;;;;;10.04;69.67;98932.31;4405311;32;33109;-91
2023/12/26 01:02:21;;;;;;;;;;;;;;;10.20;69.11;98919.56;4405655;32;34810;-92
2023/12/26 01:04:50;;;;;;;;;;;;;;;10.36;68.30;98914.56;4417942;32;32894;-93
2023/12/26 01:07:18;;;;;;;;;;;;;;;10.32;68.50;98912.78;4402338;32;33948;-90
2023/12/26 01:09:45;;;;;;;;;;;;;;;10.38;67.92;98887.81;4398818;32;33417;-89
2023/12/26 01:12:13;;;;;;;;;;;;;;;10.03;68.63;98897.78;4417378;32;33530;-93
2023/12/26 01:14:41;;;;;;;;;;;;;;;10.06;68.69;98921.13;4405125;32;33730;-93
2023/12/26 01:17:09;;;;;;;;;;;;;;;9.95;68.63;98922.72;4399606;32;33772;-94
2023/12/26 01:19:36;;;;;;;;;;;;;;;9.85;69.09;98939.00;4396295;32;32426;-89
2023/12/26 01:22:04;;;;;;;;;;;;;;;10.09;68.22;98930.66;4405423;32;34174;-91
2023/12/26 01:24:31;;;;;;;;;;;;;;;9.95;68.18;98927.91;4401739;32;34324;-91
2023/12/26 01:26:59;;;;;;;;;;;;;;;9.84;68.15;98922.59;4390251;32;33125;-90
2023/12/26 01:29:26;;;;;;;;;;;;;;;9.65;69.10;98913.75;4390352;32;33827;-93
2023/12/26 01:31:54;;;;;;;;;;;;;;;9.58;68.81;98922.28;4390445;32;33176;-89
2023/12/26 01:34:22;;;;;;;;;;;;;;;9.66;68.34;98920.69;4416668;32;33983;-90
2023/12/26 01:36:50;;;;;;;;;;;;;;;9.42;68.29;98915.19;4399890;32;34458;-91
2023/12/26 01:39:28;;;;;;;;;;;;;;;9.51;68.15;98917.91;4414324;32;34306;-89
2023/12/26 01:41:55;;;;;;;;;;;;;;;9.53;67.98;98912.72;4397526;32;33983;-89
2023/12/26 01:44:22;;;;;;;;;;;;;;;9.33;68.25;98908.16;4404469;32;34032;-91
2023/12/26 01:46:50;;;;;;;;;;;;;;;9.30;68.40;98922.78;4414612;32;34508;-91
2023/12/26 01:49:17;;;;;;;;;;;;;;;9.44;67.73;98929.00;4390116;32;33207;-90
2023/12/26 01:51:45;;;;;;;;;;;;;;;9.35;67.82;98923.69;4401678;32;34200;-89
2023/12/26 01:54:13;;;;;;;;;;;;;;;9.22;68.05;98933.00;4401565;32;33473;-92
2023/12/26 01:56:41;;;;;;;;;;;;;;;9.33;67.73;98925.41;4404546;32;33545;-92
2023/12/26 01:59:08;;;;;;;;;;;;;;;9.35;67.48;98919.37;4402991;32;33420;-91
2023/12/26 02:01:36;;;;;;;;;;;;;;;9.45;67.20;98923.84;4402297;32;34104;-91
2023/12/26 02:04:04;;;;;;;;;;;;;;;9.62;66.54;98918.91;4419197;32;34067;-90
2023/12/26 02:06:31;;;;;;;;;;;;;;;9.48;66.19;98910.09;4403089;32;33715;-91
2023/12/26 02:08:59;;;;;;;;;;;;;;;9.34;66.72;98916.78;4403833;32;32295;-92
2023/12/26 02:11:27;;;;;;;;;;;;;;;9.52;66.17;98911.00;4402313;32;32989;-90
2023/12/26 02:13:54;;;;;;;;;;;;;;;9.26;66.42;98902.03;4404099;32;34173;-94
2023/12/26 02:16:21;;;;;;;;;;;;;;;8.91;67.73;98900.69;4417309;32;33613;-92
2023/12/26 02:18:50;;;;;;;;;;;;;;;9.24;66.43;98897.69;4391788;32;33141;-88
2023/12/26 02:21:17;;;;;;;;;;;;;;;9.13;66.64;98900.16;4417046;32;34740;-90
2023/12/26 02:23:45;;;;;;;;;;;;;;;9.18;66.40;98900.19;4406101;32;34717;-90
2023/12/26 02:26:12;;;;;;;;;;;;;;;9.09;66.72;98897.47;4417699;32;35137;-90
2023/12/26 02:28:39;;;;;;;;;;;;;;;9.08;66.77;98906.06;4409038;32;33327;-91
2023/12/26 02:31:08;;;;;;;;;;;;;;;9.15;66.15;98897.56;4390006;32;34126;-91
2023/12/26 02:33:35;;;;;;;;;;;;;;;9.15;66.17;98890.66;4402574;32;33071;-89
2023/12/26 02:36:03;;;;;;;;;;;;;;;9.17;66.37;98896.75;4392822;32;33524;-90
2023/12/26 02:38:31;;;;;;;;;;;;;;;9.25;65.81;98896.84;4389975;32;32086;-90
2023/12/26 02:40:58;;;;;;;;;;;;;;;9.26;65.64;98890.81;4397832;32;33271;-91
2023/12/26 02:43:28;;;;;;;;;;;;;;;9.34;65.11;98901.28;4417604;32;33933;-91
2023/12/26 02:45:55;;;;;;;;;;;;;;;9.01;66.41;98897.34;4403643;32;33171;-92
2023/12/26 02:48:23;;;;;;;;;;;;;;;9.16;65.99;98894.97;4401168;32;33457;-91
2023/12/26 02:50:51;;;;;;;;;;;;;;;9.17;65.84;98898.47;4404917;32;32996;-91
2023/12/26 02:53:18;;;;;;;;;;;;;;;9.25;65.55;98892.53;4402655;32;33982;-92
2023/12/26 02:55:50;;;;;;;;;;;;;;;9.12;66.25;98898.38;4402891;32;34917;-92
2023/12/26 02:58:18;;;;;;;;;;;;;;;9.07;66.60;98894.00;4415943;32;33358;-91
2023/12/26 03:00:46;;;;;;;;;;;;;;;9.16;66.22;98889.81;4393435;32;34047;-90
2023/12/26 03:03:14;;;;;;;;;;;;;;;9.05;67.02;98888.78;4384153;32;34396;-90
2023/12/26 03:05:41;;;;;;;;;;;;;;;9.06;67.38;98894.88;4403136;32;34210;-90
2023/12/26 03:08:10;;;;;;;;;;;;;;;9.09;67.59;98885.44;4406129;32;34001;-90
2023/12/26 03:10:37;;;;;;;;;;;;;;;8.89;68.51;98890.28;4403909;32;34185;-91
2023/12/26 03:13:04;;;;;;;;;;;;;;;9.07;68.09;98887.13;4405367;32;35187;-92
2023/12/26 03:15:32;;;;;;;;;;;;;;;9.09;68.13;98876.78;4399144;32;34188;-89
2023/12/26 03:17:59;;;;;;;;;;;;;;;9.15;67.91;98880.31;4417177;32;33575;-90
2023/12/26 03:20:27;;;;;;;;;;;;;;;9.32;67.19;98887.44;4406289;32;33906;-91
2023/12/26 03:22:55;;;;;;;;;;;;;;;9.34;66.86;98878.84;4416326;32;35065;-92
2023/12/26 03:25:58;;;;;;;;;;;;;;;9.16;67.46;98887.22;4405512;32;35665;-93
2023/12/26 03:28:26;;;;;;;;;;;;;;;9.12;67.62;98885.44;4417192;32;34086;-93
2023/12/26 03:30:53;;;;;;;;;;;;;;;9.16;67.30;98868.25;4397862;32;32882;-92
2023/12/26 03:33:20;;;;;;;;;;;;;;;9.09;67.56;98869.91;4395526;32;34588;-89
2023/12/26 03:35:48;;;;;;;;;;;;;;;9.33;66.63;98874.53;4400893;32;32773;-91
2023/12/26 03:38:15;;;;;;;;;;;;;;;9.25;66.76;98879.63;4416027;32;33960;-91
2023/12/26 03:40:43;;;;;;;;;;;;;;;9.27;66.33;98870.12;4415945;32;34065;-91
2023/12/26 03:43:11;;;;;;;;;;;;;;;9.15;66.26;98864.81;4402979;32;34540;-92
2023/12/26 03:45:59;;;;;;;;;;;;;;;9.22;66.06;98864.03;4404580;32;33912;-90
2023/12/26 03:48:27;;;;;;;;;;;;;;;9.27;65.61;98854.62;4401717;32;32033;-91
2023/12/26 03:50:54;;;;;;;;;;;;;;;9.24;65.62;98844.25;4389469;32;34249;-93
2023/12/26 03:53:21;;;;;;;;;;;;;;;9.02;65.75;98837.94;4393722;32;34930;-88
2023/12/26 03:55:49;;;;;;;;;;;;;;;8.99;65.91;98837.00;4403370;32;34429;-88
2023/12/26 03:58:17;;;;;;;;;;;;;;;9.01;65.89;98837.88;4416674;32;33015;-92
2023/12/26 04:00:44;;;;;;;;;;;;;;;9.06;65.74;98845.72;4410562;32;33322;-93
2023/12/26 04:03:12;;;;;;;;;;;;;;;9.11;65.62;98841.47;4412430;32;34100;-93
2023/12/26 04:05:40;;;;;;;;;;;;;;;9.04;65.78;98844.81;4403550;32;33504;-92
2023/12/26 04:08:16;;;;;;;;;;;;;;;8.97;66.01;98841.28;4417295;32;34134;-89
2023/12/26 04:10:46;;;;;;;;;;;;;;;8.83;66.70;98845.41;4416013;32;33772;-92
2023/12/26 04:13:13;;;;;;;;;;;;;;;8.85;66.78;98838.53;4404139;32;33395;-94
2023/12/26 04:15:41;;;;;;;;;;;;;;;8.81;66.79;98837.63;4416745;32;34915;-91
2023/12/26 04:18:09;;;;;;;;;;;;;;;8.70;66.76;98829.69;4391852;32;32202;-92
2023/12/26 04:20:36;;;;;;;;;;;;;;;8.63;67.10;98837.34;4391449;32;33859;-91
2023/12/26 04:23:04;;;;;;;;;;;;;;;8.57;66.92;98832.97;4391702;32;33827;-90
2023/12/26 04:25:32;;;;;;;;;;;;;;;8.51;66.79;98830.28;4403600;32;34708;-94
2023/12/26 04:27:59;;;;;;;;;;;;;;;8.62;66.58;98839.06;4404084;32;32238;-92
2023/12/26 04:30:27;;;;;;;;;;;;;;;8.46;66.59;98837.09;4391510;32;32685;-90
2023/12/26 04:32:55;;;;;;;;;;;;;;;8.42;66.43;98846.50;4391686;32;33536;-93
2023/12/26 04:35:23;;;;;;;;;;;;;;;8.15;66.67;98853.75;4404158;32;33806;-90
2023/12/26 04:37:51;;;;;;;;;;;;;;;8.20;67.22;98857.28;4404068;32;33875;-92
2023/12/26 04:40:18;;;;;;;;;;;;;;;8.07;67.08;98840.72;4404188;32;33723;-93
2023/12/26 04:42:46;;;;;;;;;;;;;;;8.11;67.21;98845.09;4392531;32;33967;-93
2023/12/26 04:45:14;;;;;;;;;;;;;;;8.23;66.66;98834.97;4390687;32;33997;-91
2023/12/26 04:47:41;;;;;;;;;;;;;;;8.23;66.64;98844.44;4402045;32;34008;-91
2023/12/26 04:50:09;;;;;;;;;;;;;;;7.97;66.88;98839.69;4380525;32;32947;-92
2023/12/26 04:52:36;;;;;;;;;;;;;;;8.09;66.62;98849.34;4427060;32;33393;-93
2023/12/26 04:55:04;;;;;;;;;;;;;;;8.12;66.70;98859.75;4385521;32;33328;-89
2023/12/26 04:57:31;;;;;;;;;;;;;;;8.06;67.07;98857.03;4379116;32;33041;-91
2023/12/26 04:59:59;;;;;;;;;;;;;;;8.16;66.56;98866.69;4380347;32;33518;-92
2023/12/26 05:02:27;;;;;;;;;;;;;;;8.04;66.63;98858.75;4367129;32;33472;-89
2023/12/26 05:04:55;;;;;;;;;;;;;;;8.08;66.22;98857.09;4386924;32;33593;-91
2023/12/26 05:07:22;;;;;;;;;;;;;;;7.98;66.38;98861.19;4381014;32;33176;-89
2023/12/26 05:09:50;;;;;;;;;;;;;;;8.05;65.84;98869.06;4392041;32;33183;-91
2023/12/26 05:12:18;;;;;;;;;;;;;;;8.09;65.59;98867.41;4380231;32;33771;-91
2023/12/26 05:14:46;;;;;;;;;;;;;;;7.98;65.64;98869.81;4380372;32;33848;-91
2023/12/26 05:17:14;;;;;;;;;;;;;;;8.01;65.43;98867.28;4376202;32;32413;-92
2023/12/26 05:19:42;;;;;;;;;;;;;;;8.05;64.79;98868.22;4381978;32;35027;-93
2023/12/26 05:22:10;;;;;;;;;;;;;;;7.87;65.37;98867.88;4394415;32;33127;-91
2023/12/26 05:24:39;;;;;;;;;;;;;;;7.95;65.30;98853.38;4394037;32;32382;-92
2023/12/26 05:27:18;;;;;;;;;;;;;;;8.01;65.23;98859.53;4396295;32;34074;-93
2023/12/26 05:29:45;;;;;;;;;;;;;;;7.70;64.97;98854.66;4399655;32;34212;-90
2023/12/26 05:32:12;;;;;;;;;;;;;;;7.71;65.37;98862.41;4398924;32;34168;-89
2023/12/26 05:34:43;;;;;;;;;;;;;;;7.88;65.18;98861.84;4401437;32;33867;-93
2023/12/26 05:37:10;;;;;;;;;;;;;;;7.82;64.93;98851.44;4398457;32;33390;-90
2023/12/26 05:39:46;;;;;;;;;;;;;;;7.87;64.29;98852.38;4374649;32;33270;-92
2023/12/26 05:42:13;;;;;;;;;;;;;;;7.71;64.42;98872.75;4390148;32;34517;-93
2023/12/26 05:44:41;;;;;;;;;;;;;;;7.66;64.62;98866.63;4415979;32;34007;-92
2023/12/26 05:47:10;;;;;;;;;;;;;;;7.83;64.23;98850.59;4403400;32;33499;-93
2023/12/26 05:49:58;;;;;;;;;;;;;;;7.79;64.26;98858.28;4390994;32;33916;-94
2023/12/26 05:52:27;;;;;;;;;;;;;;;7.77;63.53;98865.13;4408727;32;34566;-94
2023/12/26 05:54:55;;;;;;;;;;;;;;;7.42;64.44;98863.53;4404586;32;34996;-93
2023/12/26 05:57:23;;;;;;;;;;;;;;;7.55;64.44;98850.06;4412718;32;33397;-91
2023/12/26 05:59:52;;;;;;;;;;;;;;;7.67;63.96;98845.16;4414167;32;34167;-94
2023/12/26 06:02:41;;;;;;;;;;;;;;;7.44;64.52;98839.53;4403462;32;33481;-94
2023/12/26 06:05:11;;;;;;;;;;;;;;;7.60;64.06;98842.41;4404266;32;34154;-92
2023/12/26 06:07:38;;;;;;;;;;;;;;;7.65;63.79;98846.84;4417144;32;33231;-92
2023/12/26 06:10:06;;;;;;;;;;;;;;;7.72;63.45;98864.16;4401709;32;33091;-94
2023/12/26 06:12:53;;;;;;;;;;;;;;;7.51;64.04;98851.72;4414372;32;33355;-91
2023/12/26 06:15:56;;;;;;;;;;;;;;;7.60;63.86;98863.91;4405440;32;33474;-94
2023/12/26 06:18:28;;;;;;;;;;;;;;;7.48;64.04;98863.69;4401831;32;31396;-95
2023/12/26 06:21:15;;;;;;;;;;;;;;;7.48;64.53;98864.56;4410547;32;34491;-96
2023/12/26 06:23:59;;;;;;;;;;;;;;;7.57;64.35;98861.28;4403451;32;33142;-89
2023/12/26 06:26:26;;;;;;;;;;;;;;;7.54;64.39;98854.38;4390232;32;34490;-90
2023/12/26 06:28:54;;;;;;;;;;;;;;;7.56;64.34;98851.81;4398670;32;32831;-91
2023/12/26 06:31:21;;;;;;;;;;;;;;;7.53;64.37;98855.19;4404698;32;32973;-90
2023/12/26 06:33:49;;;;;;;;;;;;;;;7.52;64.39;98856.03;4399184;32;34497;-91
2023/12/26 06:36:16;;;;;;;;;;;;;;;7.36;64.96;98859.16;4416146;32;34387;-89
2023/12/26 06:38:44;;;;;;;;;;;;;;;7.48;64.91;98863.69;4395623;32;33533;-89
2023/12/26 06:41:12;;;;;;;;;;;;;;;7.44;64.88;98867.91;4400140;32;33355;-93
2023/12/26 06:43:39;;;;;;;;;;;;;;;7.60;64.24;98858.75;4416649;32;33451;-90
2023/12/26 06:46:06;;;;;;;;;;;;;;;7.65;63.78;98861.41;4401786;32;33953;-93
2023/12/26 06:48:34;;;;;;;;;;;;;;;7.59;64.08;98859.59;4412993;32;34157;-88
2023/12/26 06:51:05;;;;;;;;;;;;;;;7.63;63.88;98863.13;4404222;32;34835;-91
2023/12/26 06:53:32;;;;;;;;;;;;;;;7.52;63.80;98861.19;4397924;32;33493;-92
2023/12/26 06:56:00;;;;;;;;;;;;;;;7.45;64.06;98868.78;4398109;32;33398;-92
2023/12/26 06:58:28;;;;;;;;;;;;;;;7.54;63.93;98874.13;4411600;32;34157;-92
2023/12/26 07:00:56;;;;;;;;;;;;;;;7.52;63.94;98873.22;4399022;32;33031;-90
2023/12/26 07:03:24;;;;;;;;;;;;;;;7.49;64.27;98881.75;4403180;32;34568;-92
2023/12/26 07:05:52;;;;;;;;;;;;;;;7.36;64.79;98884.06;4391547;32;32996;-91
2023/12/26 07:08:20;;;;;;;;;;;;;;;7.50;64.17;98890.38;4383265;32;33314;-90
2023/12/26 07:10:49;;;;;;;;;;;;;;;7.42;64.13;98886.75;4403144;32;32299;-91
2023/12/26 07:13:17;;;;;;;;;;;;;;;7.49;64.01;98896.37;4404581;32;34174;-91
2023/12/26 07:15:45;;;;;;;;;;;;;;;7.50;64.20;98898.09;4404573;32;33892;-90
2023/12/26 07:18:17;;;;;;;;;;;;;;;7.49;64.00;98904.09;4405202;32;34039;-92
2023/12/26 07:20:45;;;;;;;;;;;;;;;7.40;64.29;98901.34;4403282;32;34017;-89
2023/12/26 07:23:12;;;;;;;;;;;;;;;7.40;64.33;98911.66;4404748;32;34662;-92
2023/12/26 07:25:41;;;;;;;;;;;;;;;7.38;64.45;98913.31;4414370;32;35037;-89
2023/12/26 07:28:10;;;;;;;;;;;;;;;7.41;64.64;98926.28;4404186;32;32530;-93
2023/12/26 07:30:38;;;;;;;;;;;;;;;7.43;64.48;98922.06;4403686;32;34168;-91
2023/12/26 07:33:06;;;;;;;;;;;;;;;7.46;64.60;98922.09;4416972;32;32735;-92
2023/12/26 07:35:50;;;;;;;;;;;;;;;6.99;66.10;98927.09;4402713;32;33106;-93
2023/12/26 07:38:19;;;;;;;;;;;;;;;7.18;65.61;98928.38;4390557;32;33686;-92
2023/12/26 07:40:46;;;;;;;;;;;;;;;6.98;66.69;98933.09;4403200;32;33162;-90
2023/12/26 07:43:14;;;;;;;;;;;;;;;7.03;67.38;98934.03;4413396;32;35310;-91
2023/12/26 07:45:42;;;;;;;;;;;;;;;7.20;67.13;98940.47;4402762;32;34203;-92
2023/12/26 07:48:12;;;;;;;;;;;;;;;7.14;67.65;98940.31;4397121;32;32423;-92
2023/12/26 07:50:41;;;;;;;;;;;;;;;7.21;67.71;98929.31;4397073;32;34009;-91
2023/12/26 07:53:08;;;;;;;;;;;;;;;7.25;67.78;98932.84;4383908;32;35223;-92
2023/12/26 07:55:36;;;;;;;;;;;;;;;7.21;68.44;98937.03;4399967;32;32821;-89
2023/12/26 07:58:05;;;;;;;;;;;;;;;7.43;67.77;98933.25;4389908;32;32540;-90
2023/12/26 08:00:32;;;;;;;;;;;;;;;7.48;67.95;98926.47;4387919;32;33056;-93
2023/12/26 08:03:20;;;;;;;;;;;;;;;7.56;68.04;98926.63;4395415;32;33255;-94
2023/12/26 08:06:07;;;;;;;;;;;;;;;7.48;68.66;98929.03;4415323;32;33982;-93
2023/12/26 08:08:52;;;;;;;;;;;;;;;7.25;69.43;98933.69;4407954;32;33341;-92
2023/12/26 08:11:21;;;;;;;;;;;;;;;7.43;69.39;98934.94;4404762;32;33997;-93
2023/12/26 08:13:48;;;;;;;;;;;;;;;7.55;69.06;98935.19;4414399;32;34372;-94
2023/12/26 08:16:36;;;;;;;;;;;;;;;7.62;69.06;98934.50;4410616;32;34009;-94
2023/12/26 08:19:04;;;;;;;;;;;;;;;7.59;69.47;98946.47;4392999;32;32365;-91
2023/12/26 08:21:31;;;;;;;;;;;;;;;7.51;69.95;98941.13;4415114;32;34122;-91
2023/12/26 08:23:59;;;;;;;;;;;;;;;7.63;70.50;98943.97;4415170;32;34717;-92
2023/12/26 08:26:30;;;;;;;;;;;;;;;7.67;70.69;98947.47;4403466;32;34766;-89
2023/12/26 08:28:58;;;;;;;;;;;;;;;7.43;71.60;98951.28;4401130;32;33102;-91
2023/12/26 08:31:26;;;;;;;;;;;;;;;7.64;71.91;98950.00;4402528;32;33880;-91
2023/12/26 08:33:53;;;;;;;;;;;;;;;7.70;73.10;98939.81;4397930;32;33015;-92
2023/12/26 08:36:21;;;;;;;;;;;;;;;7.77;73.18;98942.53;4400512;32;32434;-90
2023/12/26 08:38:48;;;;;;;;;;;;;;;7.86;73.22;98933.25;4397089;32;33287;-90
2023/12/26 08:41:15;;;;;;;;;;;;;;;7.64;74.25;98937.09;4398167;32;33588;-90
2023/12/26 08:43:44;;;;;;;;;;;;;;;7.78;74.50;98925.34;4401817;32;34045;-90
2023/12/26 08:46:12;;;;;;;;;;;;;;;8.16;73.14;98918.34;4412993;32;34162;-90
2023/12/26 08:48:39;;;;;;;;;;;;;;;8.12;72.93;98932.03;4401808;32;33608;-93
2023/12/26 08:51:07;;;;;;;;;;;;;;;8.14;72.84;98927.75;4399864;32;32836;-91
2023/12/26 08:53:35;;;;;;;;;;;;;;;7.72;74.91;98935.53;4401511;32;33929;-91
2023/12/26 08:56:05;;;;;;;;;;;;;;;8.04;74.17;98926.72;4396877;32;33485;-92
2023/12/26 08:58:34;;;;;;;;;;;;;;;8.15;73.79;98929.50;4378499;32;32422;-94
2023/12/26 09:01:02;;;;;;;;;;;;;;;8.24;74.30;98929.66;4403607;32;33672;-92
2023/12/26 09:03:29;;;;;;;;;;;;;;;8.19;74.71;98939.06;4414763;32;33746;-94
2023/12/26 09:05:57;;;;;;;;;;;;;;;8.43;74.12;98932.63;4406085;32;33886;-93
2023/12/26 09:08:44;;;;;;;;;;;;;;;8.48;73.95;98938.72;4398789;32;33849;-91
2023/12/26 09:11:32;;;;;;;;;;;;;;;8.29;75.85;98950.41;4388362;32;32907;-92
2023/12/26 09:13:59;;;;;;;;;;;;;;;8.66;74.66;98946.78;4405390;32;33312;-92
2023/12/26 09:16:27;;;;;;;;;;;;;;;8.31;76.43;98943.56;4416434;32;34012;-93
2023/12/26 09:18:56;;;;;;;;;;;;;;;8.73;75.13;98938.31;4401894;32;33196;-91
2023/12/26 09:21:42;;;;;;;;;;;;;;;8.83;74.84;98934.16;4403934;32;33518;-90
2023/12/26 09:24:13;;;;;;;;;;;;;;;9.08;73.03;98937.97;4416011;32;34213;-89
2023/12/26 09:26:41;;;;;;;;;;;;;;;8.93;73.31;98940.31;4401874;32;34059;-89
2023/12/26 09:29:09;;;;;;;;;;;;;;;9.53;71.80;98948.97;4404662;32;34074;-94
2023/12/26 09:31:36;;;;;;;;;;;;;;;9.31;71.78;98958.13;4402168;32;33048;-92
2023/12/26 09:34:04;;;;;;;;;;;;;;;9.01;72.81;98964.59;4405279;32;33790;-94
2023/12/26 09:36:51;;;;;;;;;;;;;;;9.52;70.94;98973.97;4400437;32;33625;-94
2023/12/26 09:39:19;;;;;;;;;;;;;;;9.21;72.24;98970.94;4399131;32;32735;-92
2023/12/26 09:41:56;;;;;;;;;;;;;;;9.26;71.41;98971.87;4396344;32;32943;-91
2023/12/26 09:44:24;;;;;;;;;;;;;;;9.72;69.64;98977.69;4398095;32;33594;-92
2023/12/26 09:47:11;;;;;;;;;;;;;;;9.42;70.77;98979.84;4414675;32;34859;-91
2023/12/26 09:49:54;;;;;;;;;;;;;;;9.32;70.82;98973.69;4380832;32;32524;-91
2023/12/26 09:52:22;;;;;;;;;;;;;;;9.11;71.44;98976.81;4403562;32;34121;-90
2023/12/26 09:54:50;;;;;;;;;;;;;;;9.52;69.86;98973.09;4395517;32;34442;-91
2023/12/26 09:57:17;;;;;;;;;;;;;;;9.81;68.36;98963.13;4388869;32;34174;-90
2023/12/26 09:59:45;;;;;;;;;;;;;;;9.71;68.65;98960.44;4396202;32;32070;-91
2023/12/26 10:02:13;;;;;;;;;;;;;;;9.10;71.20;98963.87;4412297;32;34527;-90
2023/12/26 10:04:41;;;;;;;;;;;;;;;9.62;69.31;98970.69;4417592;32;33600;-91
2023/12/26 10:07:09;;;;;;;;;;;;;;;9.88;68.20;98977.88;4399015;32;34359;-92
2023/12/26 10:09:36;;;;;;;;;;;;;;;9.71;69.19;98975.09;4412273;32;34116;-93
2023/12/26 10:12:04;;;;;;;;;;;;;;;10.06;68.15;98966.88;4404339;32;33258;-91
2023/12/26 10:14:35;;;;;;;;;;;;;;;9.82;68.78;98977.81;4416418;32;34281;-90
2023/12/26 10:17:06;;;;;;;;;;;;;;;9.96;68.29;98971.06;4416714;32;34505;-90
2023/12/26 10:19:33;;;;;;;;;;;;;;;10.04;68.25;98972.06;4402174;32;32091;-92
2023/12/26 10:22:02;;;;;;;;;;;;;;;10.01;68.31;98969.44;4394510;32;34158;-90
2023/12/26 10:24:29;;;;;;;;;;;;;;;10.05;68.29;98963.44;4400243;32;34863;-91
2023/12/26 10:26:58;;;;;;;;;;;;;;;9.64;69.16;98961.19;4401407;32;34054;-91
2023/12/26 10:29:25;;;;;;;;;;;;;;;9.20;71.06;98956.25;4411205;32;33309;-90
2023/12/26 10:31:53;;;;;;;;;;;;;;;9.69;69.46;98938.81;4427805;32;34512;-90
2023/12/26 10:34:20;;;;;;;;;;;;;;;9.96;68.27;98946.06;4416153;32;34423;-90
2023/12/26 10:36:49;;;;;;;;;;;;;;;10.06;68.37;98936.66;4403168;32;33117;-91
2023/12/26 10:39:17;;;;;;;;;;;;;;;9.59;69.84;98939.56;4413890;32;33197;-92
2023/12/26 10:41:45;;;;;;;;;;;;;;;9.68;69.64;98942.25;4415394;32;34951;-90
2023/12/26 10:44:13;;;;;;;;;;;;;;;9.93;69.04;98942.56;4400536;32;33597;-89
2023/12/26 10:46:40;;;;;;;;;;;;;;;9.48;70.56;98935.97;4415341;32;34167;-90
2023/12/26 10:49:09;;;;;;;;;;;;;;;10.29;67.77;98943.84;4410841;32;34286;-89
2023/12/26 10:51:37;;;;;;;;;;;;;;;10.13;68.26;98935.88;4415501;32;33162;-90
2023/12/26 10:54:06;;;;;;;;;;;;;;;10.28;67.88;98932.63;4394334;32;33948;-89
2023/12/26 10:56:34;;;;;;;;;;;;;;;10.31;67.66;98929.19;4405237;32;34142;-91
2023/12/26 10:59:02;;;;;;;;;;;;;;;10.33;67.74;98924.88;4395312;32;31745;-91
2023/12/26 11:01:30;;;;;;;;;;;;;;;10.55;66.82;98916.47;4394242;32;33434;-91
2023/12/26 11:03:57;;;;;;;;;;;;;;;10.35;67.65;98924.06;4392248;32;33188;-90
2023/12/26 11:06:24;;;;;;;;;;;;;;;10.33;67.87;98911.94;4381364;32;32836;-90
2023/12/26 11:08:52;;;;;;;;;;;;;;;10.75;66.72;98918.34;4397156;32;32361;-91
2023/12/26 11:11:19;;;;;;;;;;;;;;;10.38;67.36;98921.50;4403386;32;33728;-91
2023/12/26 11:13:47;;;;;;;;;;;;;;;10.16;68.22;98938.50;4403859;32;33848;-89
2023/12/26 11:16:16;;;;;;;;;;;;;;;10.34;67.75;98936.97;4417241;32;34070;-90
2023/12/26 11:18:43;;;;;;;;;;;;;;;10.38;67.60;98928.38;4400799;32;32857;-90
2023/12/26 11:21:11;;;;;;;;;;;;;;;10.17;68.84;98919.53;4411052;32;33550;-90
2023/12/26 11:23:39;;;;;;;;;;;;;;;10.36;68.16;98924.94;4401206;32;33460;-90
2023/12/26 11:26:23;;;;;;;;;;;;;;;10.07;68.81;98909.03;4399621;32;34414;-93
2023/12/26 11:28:50;;;;;;;;;;;;;;;10.47;67.37;98912.94;4385603;32;32038;-91
2023/12/26 11:31:18;;;;;;;;;;;;;;;10.07;68.98;98917.69;4412350;32;34472;-89
2023/12/26 11:33:46;;;;;;;;;;;;;;;10.30;68.20;98945.56;4409533;32;35136;-90
2023/12/26 11:36:14;;;;;;;;;;;;;;;10.34;67.90;98921.44;4403292;32;34603;-89
2023/12/26 11:38:41;;;;;;;;;;;;;;;10.69;66.86;98901.91;4398604;32;32391;-89
2023/12/26 11:41:09;;;;;;;;;;;;;;;10.63;66.93;98909.63;4387956;32;34453;-93
2023/12/26 11:43:36;;;;;;;;;;;;;;;10.29;68.50;98918.81;4403900;32;34797;-89
2023/12/26 11:46:05;;;;;;;;;;;;;;;10.17;69.29;98916.06;4389329;32;34260;-91
2023/12/26 11:48:32;;;;;;;;;;;;;;;10.53;67.73;98915.59;4399720;32;32393;-89
2023/12/26 11:51:00;;;;;;;;;;;;;;;10.63;67.07;98919.97;4397074;32;33741;-89
2023/12/26 11:53:28;;;;;;;;;;;;;;;10.07;69.00;98915.09;4397855;32;34178;-91
2023/12/26 11:55:55;;;;;;;;;;;;;;;10.61;67.74;98911.34;4409432;32;33857;-89
2023/12/26 11:58:22;;;;;;;;;;;;;;;10.64;67.55;98913.94;4418036;32;32855;-90
2023/12/26 12:00:50;;;;;;;;;;;;;;;10.59;67.60;98907.00;4398835;32;33272;-89
2023/12/26 12:03:17;;;;;;;;;;;;;;;10.55;67.76;98919.06;4399492;32;34453;-89
2023/12/26 12:05:45;;;;;;;;;;;;;;;10.51;67.85;98914.69;4402306;32;34690;-89
2023/12/26 12:08:12;;;;;;;;;;;;;;;10.50;67.64;98915.56;4395623;32;33069;-91
2023/12/26 12:11:04;;;;;;;;;;;;;;;10.38;68.14;98930.97;4398534;32;33937;-90
2023/12/26 12:13:31;;;;;;;;;;;;;;;10.55;67.58;98937.19;4392831;32;33715;-89
2023/12/26 12:15:58;;;;;;;;;;;;;;;10.61;67.36;98939.00;4415717;32;35110;-91
2023/12/26 12:18:26;;;;;;;;;;;;;;;10.55;67.72;98932.00;4396692;32;33107;-89
2023/12/26 12:20:53;;;;;;;;;;;;;;;10.53;67.64;98928.56;4399787;32;33697;-88
2023/12/26 12:23:25;;;;;;;;;;;;;;;10.47;67.40;98925.91;4395477;32;32982;-90
2023/12/26 12:25:57;;;;;;;;;;;;;;;10.52;67.15;98931.97;4411419;32;34010;-90
2023/12/26 12:28:25;;;;;;;;;;;;;;;10.43;67.50;98937.09;4395885;32;32345;-89
2023/12/26 12:31:00;;;;;;;;;;;;;;;10.32;67.83;98939.56;4401717;32;33244;-88
2023/12/26 12:33:27;;;;;;;;;;;;;;;10.37;67.94;98937.88;4417062;32;34238;-89
2023/12/26 12:35:55;;;;;;;;;;;;;;;9.86;70.26;98940.75;4415923;32;33630;-89
2023/12/26 12:38:22;;;;;;;;;;;;;;;10.01;69.95;98937.47;4408824;32;33348;-89
2023/12/26 12:40:50;;;;;;;;;;;;;;;10.03;69.49;98939.22;4412356;32;33667;-91
2023/12/26 12:43:17;;;;;;;;;;;;;;;10.01;69.77;98938.34;4403300;32;33551;-89
2023/12/26 12:45:46;;;;;;;;;;;;;;;10.11;69.59;98932.41;4414627;32;34876;-91
2023/12/26 12:48:14;;;;;;;;;;;;;;;9.99;69.75;98935.72;4407721;32;33214;-91
2023/12/26 12:50:42;;;;;;;;;;;;;;;9.58;70.76;98942.97;4398867;32;33981;-91
2023/12/26 12:53:09;;;;;;;;;;;;;;;9.99;69.71;98937.44;4399484;32;33697;-89
2023/12/26 12:55:40;;;;;;;;;;;;;;;10.01;69.74;98930.59;4393923;32;33836;-88
2023/12/26 12:58:07;;;;;;;;;;;;;;;10.19;69.43;98933.37;4408017;32;33407;-91
2023/12/26 13:00:34;;;;;;;;;;;;;;;9.82;70.81;98947.63;4415043;32;34221;-90
2023/12/26 13:03:02;;;;;;;;;;;;;;;10.06;69.95;98956.53;4398691;32;32925;-90
2023/12/26 13:05:38;;;;;;;;;;;;;;;10.12;69.14;98956.59;4407444;32;34176;-91